createdAt,value
2023-02-05T10:56:03.791Z,53.02
2023-02-05T11:01:18.933Z,56.67
2023-02-05T11:06:25.567Z,52.91
2023-02-05T11:11:32.202Z,52.47
2023-02-05T11:16:42.466Z,52.17
2023-02-05T11:21:47.595Z,51.91
2023-02-05T11:27:12.453Z,51.57
2023-02-05T11:32:37.091Z,51.22
2023-02-05T11:37:41.291Z,51.17
2023-02-05T11:42:52.521Z,50.50
2023-02-05T11:47:57.333Z,50.61
2023-02-05T11:53:13.709Z,50.55
2023-02-05T11:58:36.193Z,50.77
2023-02-05T12:03:41.466Z,49.68
2023-02-05T12:08:55.669Z,49.36
2023-02-05T12:14:23.009Z,48.88
2023-02-05T12:19:33.722Z,48.37
2023-02-05T12:24:49.144Z,48.80
2023-02-05T12:30:14.440Z,50.32
2023-02-05T12:35:24.210Z,51.79
2023-02-05T12:40:55.109Z,49.63
2023-02-05T12:45:59.329Z,49.15
2023-02-05T12:51:22.729Z,49.32
2023-02-05T12:56:53.621Z,49.87
2023-02-05T13:02:23.595Z,49.91
2023-02-05T13:09:06.056Z,50.22
2023-02-05T13:14:38.134Z,50.53
2023-02-05T13:19:57.225Z,56.43
2023-02-05T13:25:38.147Z,51.57
2023-02-05T13:30:47.669Z,50.77
2023-02-05T13:36:21.048Z,50.65
2023-02-05T13:41:43.165Z,50.92
2023-02-05T13:47:05.708Z,50.59
2023-02-05T13:52:14.755Z,50.65
2023-02-05T13:58:05.137Z,50.65
2023-02-05T14:03:10.469Z,50.91
2023-02-05T14:08:24.765Z,51.17
2023-02-05T14:13:34.500Z,51.00
2023-02-05T14:18:41.658Z,51.06
2023-02-05T14:23:47.772Z,51.41
2023-02-05T14:28:52.540Z,51.85
2023-02-05T14:34:28.185Z,52.96
2023-02-05T14:39:34.968Z,51.70
2023-02-05T14:44:42.667Z,51.57
2023-02-05T14:49:50.726Z,51.07
2023-02-05T14:55:13.907Z,51.59
2023-02-05T15:00:34.965Z,51.42
2023-02-05T15:05:44.059Z,55.35
2023-02-05T15:11:15.180Z,55.38
2023-02-05T15:16:21.814Z,52.71
2023-02-05T15:21:49.806Z,52.18
2023-02-05T15:36:20.201Z,55.24
2023-02-05T15:41:25.567Z,52.31
2023-02-05T15:47:24.719Z,52.55
2023-02-05T16:06:44.249Z,53.59
2023-02-05T16:47:35.870Z,53.48
2023-02-05T17:08:55.844Z,70.23
2023-02-05T17:15:37.520Z,54.65
2023-02-05T17:39:51.022Z,54.69
2023-02-05T17:43:41.910Z,55.44
2023-02-05T17:49:21.838Z,55.14
2023-02-05T18:03:40.389Z,55.72
2023-02-05T19:06:15.226Z,56.60
2023-02-05T19:11:52.205Z,57.28
2023-02-05T19:17:52.838Z,59.25
2023-02-05T19:23:50.740Z,65.45
2023-02-05T19:29:17.942Z,55.20
2023-02-05T19:34:45.319Z,54.72
2023-02-05T19:40:54.818Z,55.28
2023-02-05T20:01:56.272Z,55.49
2023-02-05T20:07:09.915Z,56.08
2023-02-05T20:13:26.835Z,56.22
2023-02-05T20:20:12.659Z,56.58
2023-02-05T20:26:33.391Z,56.70
2023-02-05T20:32:49.747Z,57.26
2023-02-05T21:05:56.640Z,56.77
2023-02-05T21:12:23.040Z,57.16
2023-02-05T21:19:16.375Z,56.93
2023-02-05T21:25:34.002Z,56.93
2023-02-05T21:31:50.610Z,56.88
2023-02-05T21:38:50.960Z,56.68
2023-02-05T21:45:27.353Z,56.40
2023-02-05T22:05:28.432Z,56.25
2023-02-05T22:12:04.309Z,56.06
2023-02-05T22:18:32.508Z,56.89
2023-02-05T22:33:06.186Z,57.43
2023-02-05T22:39:48.929Z,57.53
2023-02-05T23:04:09.986Z,58.05
2023-02-05T23:09:16.878Z,57.16
2023-02-05T23:14:58.129Z,57.04
2023-02-05T23:20:34.100Z,57.04
2023-02-05T23:26:42.479Z,57.57
2023-02-05T23:31:46.459Z,57.75
2023-02-05T23:36:49.965Z,57.87
2023-02-05T23:41:53.201Z,57.20
2023-02-05T23:47:31.897Z,57.31
2023-02-05T23:53:07.571Z,57.28
2023-02-05T23:58:48.973Z,57.32
